sensor_id;sensor_type;location;lat;lon;timestamp;P1;durP1;ratioP1;P2;durP2;ratioP2
56927;SDS011;60850;52.502;13.426;2022-09-25T00:01:00;10.52;;;6.68;;
56927;SDS011;60850;52.502;13.426;2022-09-25T00:03:40;9.27;;;6.63;;
56927;SDS011;60850;52.502;13.426;2022-09-25T00:06:08;10.13;;;7.90;;
56927;SDS011;60850;52.502;13.426;2022-09-25T00:08:39;10.52;;;7.18;;
56927;SDS011;60850;52.502;13.426;2022-09-25T00:11:06;11.70;;;7.43;;
56927;SDS011;60850;52.502;13.426;2022-09-25T00:13:35;8.77;;;6.63;;
56927;SDS011;60850;52.502;13.426;2022-09-25T00:16:02;10.05;;;6.57;;
56927;SDS011;60850;52.502;13.426;2022-09-25T00:18:30;9.10;;;6.50;;
56927;SDS011;60850;52.502;13.426;2022-09-25T00:21:16;9.68;;;6.85;;
56927;SDS011;60850;52.502;13.426;2022-09-25T00:23:44;8.20;;;6.15;;
56927;SDS011;60850;52.502;13.426;2022-09-25T00:26:11;7.60;;;6.25;;
56927;SDS011;60850;52.502;13.426;2022-09-25T00:28:39;10.52;;;6.20;;
56927;SDS011;60850;52.502;13.426;2022-09-25T00:31:08;8.73;;;6.47;;
56927;SDS011;60850;52.502;13.426;2022-09-25T00:33:36;7.95;;;5.95;;
56927;SDS011;60850;52.502;13.426;2022-09-25T00:36:04;8.70;;;6.78;;
56927;SDS011;60850;52.502;13.426;2022-09-25T00:38:34;7.82;;;6.30;;
56927;SDS011;60850;52.502;13.426;2022-09-25T00:41:04;8.98;;;6.72;;
56927;SDS011;60850;52.502;13.426;2022-09-25T00:43:34;9.18;;;6.93;;
56927;SDS011;60850;52.502;13.426;2022-09-25T00:46:04;10.48;;;7.28;;
56927;SDS011;60850;52.502;13.426;2022-09-25T00:48:44;9.32;;;6.72;;
56927;SDS011;60850;52.502;13.426;2022-09-25T00:51:14;7.43;;;6.70;;
56927;SDS011;60850;52.502;13.426;2022-09-25T00:53:45;10.40;;;6.93;;
56927;SDS011;60850;52.502;13.426;2022-09-25T00:56:14;8.13;;;7.10;;
56927;SDS011;60850;52.502;13.426;2022-09-25T00:58:41;7.97;;;6.13;;
56927;SDS011;60850;52.502;13.426;2022-09-25T01:01:08;8.93;;;6.90;;
56927;SDS011;60850;52.502;13.426;2022-09-25T01:03:35;8.65;;;6.60;;
56927;SDS011;60850;52.502;13.426;2022-09-25T01:06:04;7.65;;;6.28;;
56927;SDS011;60850;52.502;13.426;2022-09-25T01:08:33;9.45;;;6.95;;
56927;SDS011;60850;52.502;13.426;2022-09-25T01:11:02;9.10;;;6.03;;
56927;SDS011;60850;52.502;13.426;2022-09-25T01:13:29;7.90;;;6.07;;
56927;SDS011;60850;52.502;13.426;2022-09-25T01:15:57;7.22;;;6.18;;
56927;SDS011;60850;52.502;13.426;2022-09-25T01:21:35;8.07;;;5.90;;
56927;SDS011;60850;52.502;13.426;2022-09-25T01:24:13;7.70;;;6.10;;
56927;SDS011;60850;52.502;13.426;2022-09-25T01:27:01;6.10;;;5.43;;
56927;SDS011;60850;52.502;13.426;2022-09-25T01:29:48;6.75;;;5.88;;
56927;SDS011;60850;52.502;13.426;2022-09-25T01:32:20;7.15;;;5.65;;
56927;SDS011;60850;52.502;13.426;2022-09-25T01:34:55;6.65;;;5.57;;
56927;SDS011;60850;52.502;13.426;2022-09-25T01:37:28;8.77;;;6.18;;
56927;SDS011;60850;52.502;13.426;2022-09-25T01:40:05;7.85;;;5.53;;
56927;SDS011;60850;52.502;13.426;2022-09-25T01:42:37;6.65;;;5.93;;
56927;SDS011;60850;52.502;13.426;2022-09-25T01:45:10;7.15;;;5.50;;
56927;SDS011;60850;52.502;13.426;2022-09-25T01:47:41;7.05;;;5.90;;
56927;SDS011;60850;52.502;13.426;2022-09-25T01:50:13;7.28;;;5.55;;
56927;SDS011;60850;52.502;13.426;2022-09-25T01:52:45;8.65;;;5.85;;
56927;SDS011;60850;52.502;13.426;2022-09-25T01:55:16;9.90;;;6.13;;
56927;SDS011;60850;52.502;13.426;2022-09-25T01:57:50;8.60;;;6.18;;
56927;SDS011;60850;52.502;13.426;2022-09-25T02:00:24;7.78;;;5.90;;
56927;SDS011;60850;52.502;13.426;2022-09-25T02:02:53;6.88;;;6.07;;
56927;SDS011;60850;52.502;13.426;2022-09-25T02:05:24;7.22;;;5.65;;
56927;SDS011;60850;52.502;13.426;2022-09-25T02:07:57;8.18;;;5.93;;
56927;SDS011;60850;52.502;13.426;2022-09-25T02:10:29;7.13;;;6.43;;
56927;SDS011;60850;52.502;13.426;2022-09-25T02:13:04;8.07;;;6.03;;
56927;SDS011;60850;52.502;13.426;2022-09-25T02:15:37;8.23;;;5.80;;
56927;SDS011;60850;52.502;13.426;2022-09-25T02:18:08;9.10;;;6.00;;
56927;SDS011;60850;52.502;13.426;2022-09-25T02:20:56;6.97;;;5.70;;
56927;SDS011;60850;52.502;13.426;2022-09-25T02:23:31;7.35;;;5.93;;
56927;SDS011;60850;52.502;13.426;2022-09-25T02:26:04;7.00;;;5.43;;
56927;SDS011;60850;52.502;13.426;2022-09-25T02:28:33;6.35;;;5.50;;
56927;SDS011;60850;52.502;13.426;2022-09-25T02:31:04;6.85;;;5.80;;
56927;SDS011;60850;52.502;13.426;2022-09-25T02:36:02;7.70;;;6.25;;
56927;SDS011;60850;52.502;13.426;2022-09-25T02:38:31;8.48;;;5.95;;
56927;SDS011;60850;52.502;13.426;2022-09-25T02:41:02;6.60;;;5.47;;
56927;SDS011;60850;52.502;13.426;2022-09-25T02:43:44;8.95;;;6.20;;
56927;SDS011;60850;52.502;13.426;2022-09-25T02:46:21;7.13;;;5.75;;
56927;SDS011;60850;52.502;13.426;2022-09-25T02:48:58;7.85;;;6.20;;
56927;SDS011;60850;52.502;13.426;2022-09-25T02:51:38;6.97;;;6.00;;
56927;SDS011;60850;52.502;13.426;2022-09-25T02:54:11;8.60;;;5.95;;
56927;SDS011;60850;52.502;13.426;2022-09-25T02:56:46;7.72;;;6.00;;
56927;SDS011;60850;52.502;13.426;2022-09-25T02:59:17;7.47;;;5.95;;
56927;SDS011;60850;52.502;13.426;2022-09-25T03:01:50;8.30;;;6.20;;
56927;SDS011;60850;52.502;13.426;2022-09-25T03:04:17;6.80;;;6.03;;
56927;SDS011;60850;52.502;13.426;2022-09-25T03:06:47;7.13;;;5.93;;
56927;SDS011;60850;52.502;13.426;2022-09-25T03:09:14;9.13;;;6.30;;
56927;SDS011;60850;52.502;13.426;2022-09-25T03:11:45;7.68;;;5.78;;
56927;SDS011;60850;52.502;13.426;2022-09-25T03:14:12;7.63;;;6.38;;
56927;SDS011;60850;52.502;13.426;2022-09-25T03:16:40;7.07;;;6.07;;
56927;SDS011;60850;52.502;13.426;2022-09-25T03:19:13;9.45;;;6.68;;
56927;SDS011;60850;52.502;13.426;2022-09-25T03:21:40;9.95;;;6.35;;
56927;SDS011;60850;52.502;13.426;2022-09-25T03:24:07;7.75;;;6.93;;
56927;SDS011;60850;52.502;13.426;2022-09-25T03:26:34;8.85;;;6.43;;
56927;SDS011;60850;52.502;13.426;2022-09-25T03:29:02;6.97;;;5.97;;
56927;SDS011;60850;52.502;13.426;2022-09-25T03:31:29;8.07;;;7.00;;
56927;SDS011;60850;52.502;13.426;2022-09-25T03:33:56;10.80;;;7.18;;
56927;SDS011;60850;52.502;13.426;2022-09-25T03:36:25;9.93;;;7.30;;
56927;SDS011;60850;52.502;13.426;2022-09-25T03:38:53;9.52;;;6.90;;
56927;SDS011;60850;52.502;13.426;2022-09-25T03:41:23;8.63;;;7.05;;
56927;SDS011;60850;52.502;13.426;2022-09-25T03:43:52;9.40;;;7.60;;
56927;SDS011;60850;52.502;13.426;2022-09-25T03:46:22;9.13;;;6.65;;
56927;SDS011;60850;52.502;13.426;2022-09-25T03:48:50;11.13;;;6.90;;
56927;SDS011;60850;52.502;13.426;2022-09-25T03:51:18;8.38;;;6.40;;
56927;SDS011;60850;52.502;13.426;2022-09-25T03:53:47;10.38;;;7.50;;
56927;SDS011;60850;52.502;13.426;2022-09-25T03:56:15;7.50;;;6.80;;
56927;SDS011;60850;52.502;13.426;2022-09-25T03:58:44;8.20;;;7.28;;
56927;SDS011;60850;52.502;13.426;2022-09-25T04:01:12;11.45;;;7.70;;
56927;SDS011;60850;52.502;13.426;2022-09-25T04:03:40;9.10;;;7.70;;
56927;SDS011;60850;52.502;13.426;2022-09-25T04:06:12;10.27;;;7.65;;
56927;SDS011;60850;52.502;13.426;2022-09-25T04:08:42;9.20;;;7.60;;
56927;SDS011;60850;52.502;13.426;2022-09-25T04:11:12;9.63;;;7.05;;
56927;SDS011;60850;52.502;13.426;2022-09-25T04:13:40;9.73;;;7.78;;
56927;SDS011;60850;52.502;13.426;2022-09-25T04:16:08;8.85;;;7.53;;
56927;SDS011;60850;52.502;13.426;2022-09-25T04:18:35;9.45;;;7.50;;
56927;SDS011;60850;52.502;13.426;2022-09-25T04:21:04;10.05;;;7.95;;
56927;SDS011;60850;52.502;13.426;2022-09-25T04:23:33;8.75;;;7.35;;
56927;SDS011;60850;52.502;13.426;2022-09-25T04:26:02;10.98;;;8.60;;
56927;SDS011;60850;52.502;13.426;2022-09-25T04:28:31;9.40;;;7.63;;
56927;SDS011;60850;52.502;13.426;2022-09-25T04:30:58;10.90;;;8.43;;
56927;SDS011;60850;52.502;13.426;2022-09-25T04:33:26;9.40;;;8.40;;
56927;SDS011;60850;52.502;13.426;2022-09-25T04:36:11;9.68;;;7.57;;
56927;SDS011;60850;52.502;13.426;2022-09-25T04:38:38;10.40;;;7.97;;
56927;SDS011;60850;52.502;13.426;2022-09-25T04:41:05;11.10;;;8.48;;
56927;SDS011;60850;52.502;13.426;2022-09-25T04:43:34;9.07;;;8.00;;
56927;SDS011;60850;52.502;13.426;2022-09-25T04:46:01;11.65;;;8.20;;
56927;SDS011;60850;52.502;13.426;2022-09-25T04:48:29;11.27;;;8.73;;
56927;SDS011;60850;52.502;13.426;2022-09-25T04:50:57;11.98;;;7.93;;
56927;SDS011;60850;52.502;13.426;2022-09-25T04:53:24;12.75;;;8.20;;
56927;SDS011;60850;52.502;13.426;2022-09-25T04:55:52;11.82;;;7.93;;
56927;SDS011;60850;52.502;13.426;2022-09-25T04:58:20;11.75;;;8.60;;
56927;SDS011;60850;52.502;13.426;2022-09-25T05:00:48;9.70;;;8.35;;
56927;SDS011;60850;52.502;13.426;2022-09-25T05:03:15;14.38;;;8.77;;
56927;SDS011;60850;52.502;13.426;2022-09-25T05:05:42;11.90;;;8.90;;
56927;SDS011;60850;52.502;13.426;2022-09-25T05:08:09;12.65;;;8.85;;
56927;SDS011;60850;52.502;13.426;2022-09-25T05:10:37;10.07;;;8.80;;
56927;SDS011;60850;52.502;13.426;2022-09-25T05:13:05;11.05;;;9.10;;
56927;SDS011;60850;52.502;13.426;2022-09-25T05:15:33;11.23;;;8.25;;
56927;SDS011;60850;52.502;13.426;2022-09-25T05:18:02;12.57;;;8.93;;
56927;SDS011;60850;52.502;13.426;2022-09-25T05:20:31;10.95;;;8.40;;
56927;SDS011;60850;52.502;13.426;2022-09-25T05:23:00;10.52;;;8.25;;
56927;SDS011;60850;52.502;13.426;2022-09-25T05:25:29;11.68;;;7.88;;
56927;SDS011;60850;52.502;13.426;2022-09-25T05:27:57;13.00;;;8.50;;
56927;SDS011;60850;52.502;13.426;2022-09-25T05:30:25;11.15;;;8.48;;
56927;SDS011;60850;52.502;13.426;2022-09-25T05:32:53;15.63;;;9.38;;
56927;SDS011;60850;52.502;13.426;2022-09-25T05:35:25;13.63;;;9.45;;
56927;SDS011;60850;52.502;13.426;2022-09-25T05:37:54;14.52;;;9.18;;
56927;SDS011;60850;52.502;13.426;2022-09-25T05:40:21;12.18;;;9.75;;
56927;SDS011;60850;52.502;13.426;2022-09-25T05:42:48;15.88;;;9.02;;
56927;SDS011;60850;52.502;13.426;2022-09-25T05:45:17;14.68;;;9.30;;
56927;SDS011;60850;52.502;13.426;2022-09-25T05:47:45;11.57;;;9.13;;
56927;SDS011;60850;52.502;13.426;2022-09-25T05:50:13;11.60;;;9.00;;
56927;SDS011;60850;52.502;13.426;2022-09-25T05:52:43;12.13;;;8.82;;
56927;SDS011;60850;52.502;13.426;2022-09-25T05:55:10;14.07;;;10.07;;
56927;SDS011;60850;52.502;13.426;2022-09-25T05:57:37;14.32;;;9.35;;
56927;SDS011;60850;52.502;13.426;2022-09-25T06:00:05;12.05;;;8.80;;
56927;SDS011;60850;52.502;13.426;2022-09-25T06:02:33;11.57;;;8.63;;
56927;SDS011;60850;52.502;13.426;2022-09-25T06:05:01;15.38;;;9.23;;
56927;SDS011;60850;52.502;13.426;2022-09-25T06:07:28;11.73;;;9.10;;
56927;SDS011;60850;52.502;13.426;2022-09-25T06:09:57;10.73;;;8.50;;
56927;SDS011;60850;52.502;13.426;2022-09-25T06:12:24;14.73;;;9.68;;
56927;SDS011;60850;52.502;13.426;2022-09-25T06:14:51;13.00;;;9.27;;
56927;SDS011;60850;52.502;13.426;2022-09-25T06:17:18;15.13;;;8.75;;
56927;SDS011;60850;52.502;13.426;2022-09-25T06:19:45;12.23;;;8.95;;
56927;SDS011;60850;52.502;13.426;2022-09-25T06:22:13;13.38;;;9.60;;
56927;SDS011;60850;52.502;13.426;2022-09-25T06:24:40;11.18;;;8.20;;
56927;SDS011;60850;52.502;13.426;2022-09-25T06:27:08;9.63;;;8.57;;
56927;SDS011;60850;52.502;13.426;2022-09-25T06:29:35;13.30;;;9.32;;
56927;SDS011;60850;52.502;13.426;2022-09-25T06:32:02;10.80;;;7.95;;
56927;SDS011;60850;52.502;13.426;2022-09-25T06:34:30;9.63;;;8.10;;
56927;SDS011;60850;52.502;13.426;2022-09-25T06:36:58;11.88;;;7.97;;
56927;SDS011;60850;52.502;13.426;2022-09-25T06:39:26;10.68;;;8.50;;
56927;SDS011;60850;52.502;13.426;2022-09-25T06:41:53;12.52;;;8.45;;
56927;SDS011;60850;52.502;13.426;2022-09-25T06:44:21;10.50;;;7.43;;
56927;SDS011;60850;52.502;13.426;2022-09-25T06:46:48;11.18;;;8.20;;
56927;SDS011;60850;52.502;13.426;2022-09-25T06:49:19;10.05;;;8.50;;
56927;SDS011;60850;52.502;13.426;2022-09-25T06:51:46;13.48;;;9.02;;
56927;SDS011;60850;52.502;13.426;2022-09-25T06:54:15;10.27;;;8.70;;
56927;SDS011;60850;52.502;13.426;2022-09-25T06:56:42;12.68;;;9.27;;
56927;SDS011;60850;52.502;13.426;2022-09-25T06:59:09;10.95;;;8.68;;
56927;SDS011;60850;52.502;13.426;2022-09-25T07:01:37;11.27;;;8.32;;
56927;SDS011;60850;52.502;13.426;2022-09-25T07:04:04;9.95;;;8.52;;
56927;SDS011;60850;52.502;13.426;2022-09-25T07:06:30;14.38;;;10.25;;
56927;SDS011;60850;52.502;13.426;2022-09-25T07:08:59;17.10;;;10.52;;
56927;SDS011;60850;52.502;13.426;2022-09-25T07:11:28;13.45;;;10.02;;
56927;SDS011;60850;52.502;13.426;2022-09-25T07:13:56;11.20;;;9.00;;
56927;SDS011;60850;52.502;13.426;2022-09-25T07:16:24;16.23;;;9.63;;
56927;SDS011;60850;52.502;13.426;2022-09-25T07:18:54;14.15;;;8.85;;
56927;SDS011;60850;52.502;13.426;2022-09-25T07:21:23;11.15;;;8.80;;
56927;SDS011;60850;52.502;13.426;2022-09-25T07:23:53;14.30;;;9.73;;
56927;SDS011;60850;52.502;13.426;2022-09-25T07:26:23;14.32;;;9.82;;
56927;SDS011;60850;52.502;13.426;2022-09-25T07:28:52;15.80;;;10.85;;
56927;SDS011;60850;52.502;13.426;2022-09-25T07:31:21;13.70;;;10.30;;
56927;SDS011;60850;52.502;13.426;2022-09-25T07:33:50;14.32;;;10.18;;
56927;SDS011;60850;52.502;13.426;2022-09-25T07:36:18;15.45;;;10.43;;
56927;SDS011;60850;52.502;13.426;2022-09-25T07:38:49;11.82;;;9.27;;
56927;SDS011;60850;52.502;13.426;2022-09-25T07:41:17;14.68;;;10.13;;
56927;SDS011;60850;52.502;13.426;2022-09-25T07:43:50;12.55;;;9.63;;
56927;SDS011;60850;52.502;13.426;2022-09-25T07:46:17;11.82;;;9.40;;
56927;SDS011;60850;52.502;13.426;2022-09-25T07:48:46;12.93;;;9.98;;
56927;SDS011;60850;52.502;13.426;2022-09-25T07:51:14;11.52;;;8.98;;
56927;SDS011;60850;52.502;13.426;2022-09-25T07:53:43;11.45;;;9.57;;
56927;SDS011;60850;52.502;13.426;2022-09-25T07:56:10;13.60;;;9.88;;
56927;SDS011;60850;52.502;13.426;2022-09-25T07:58:38;12.63;;;9.65;;
56927;SDS011;60850;52.502;13.426;2022-09-25T08:01:07;12.23;;;9.30;;
56927;SDS011;60850;52.502;13.426;2022-09-25T08:03:36;12.00;;;9.63;;
56927;SDS011;60850;52.502;13.426;2022-09-25T08:06:04;11.63;;;9.15;;
56927;SDS011;60850;52.502;13.426;2022-09-25T08:08:34;14.30;;;10.18;;
56927;SDS011;60850;52.502;13.426;2022-09-25T08:11:03;24.88;;;16.30;;
56927;SDS011;60850;52.502;13.426;2022-09-25T08:13:32;13.48;;;10.30;;
56927;SDS011;60850;52.502;13.426;2022-09-25T08:16:00;15.40;;;10.63;;
56927;SDS011;60850;52.502;13.426;2022-09-25T08:18:27;12.48;;;9.75;;
56927;SDS011;60850;52.502;13.426;2022-09-25T08:20:59;11.43;;;9.18;;
56927;SDS011;60850;52.502;13.426;2022-09-25T08:23:26;11.45;;;8.68;;
56927;SDS011;60850;52.502;13.426;2022-09-25T08:25:53;11.93;;;9.02;;
56927;SDS011;60850;52.502;13.426;2022-09-25T08:28:21;10.77;;;9.10;;
56927;SDS011;60850;52.502;13.426;2022-09-25T08:30:49;9.38;;;8.13;;
56927;SDS011;60850;52.502;13.426;2022-09-25T08:33:16;13.13;;;9.27;;
56927;SDS011;60850;52.502;13.426;2022-09-25T08:35:43;10.45;;;9.00;;
56927;SDS011;60850;52.502;13.426;2022-09-25T08:38:20;12.55;;;8.80;;
56927;SDS011;60850;52.502;13.426;2022-09-25T08:40:50;10.55;;;9.02;;
56927;SDS011;60850;52.502;13.426;2022-09-25T08:43:22;11.32;;;9.43;;
56927;SDS011;60850;52.502;13.426;2022-09-25T08:45:51;11.50;;;9.38;;
56927;SDS011;60850;52.502;13.426;2022-09-25T08:48:42;10.60;;;8.98;;
56927;SDS011;60850;52.502;13.426;2022-09-25T08:51:31;13.80;;;9.88;;
56927;SDS011;60850;52.502;13.426;2022-09-25T08:54:02;13.70;;;10.05;;
56927;SDS011;60850;52.502;13.426;2022-09-25T08:56:30;13.18;;;9.90;;
56927;SDS011;60850;52.502;13.426;2022-09-25T08:59:02;13.23;;;9.73;;
56927;SDS011;60850;52.502;13.426;2022-09-25T09:01:38;12.95;;;9.95;;
56927;SDS011;60850;52.502;13.426;2022-09-25T09:04:12;11.95;;;9.55;;
56927;SDS011;60850;52.502;13.426;2022-09-25T09:06:45;11.70;;;9.68;;
56927;SDS011;60850;52.502;13.426;2022-09-25T09:09:16;11.77;;;9.15;;
56927;SDS011;60850;52.502;13.426;2022-09-25T09:11:48;12.63;;;9.57;;
56927;SDS011;60850;52.502;13.426;2022-09-25T09:14:22;13.13;;;10.15;;
56927;SDS011;60850;52.502;13.426;2022-09-25T09:16:54;12.25;;;9.07;;
56927;SDS011;60850;52.502;13.426;2022-09-25T09:19:25;14.25;;;9.65;;
56927;SDS011;60850;52.502;13.426;2022-09-25T09:21:54;10.90;;;9.63;;
56927;SDS011;60850;52.502;13.426;2022-09-25T09:24:30;11.70;;;9.07;;
56927;SDS011;60850;52.502;13.426;2022-09-25T09:27:11;11.63;;;10.43;;
56927;SDS011;60850;52.502;13.426;2022-09-25T09:29:54;12.60;;;9.60;;
56927;SDS011;60850;52.502;13.426;2022-09-25T09:32:36;10.70;;;9.52;;
56927;SDS011;60850;52.502;13.426;2022-09-25T09:35:16;13.70;;;10.15;;
56927;SDS011;60850;52.502;13.426;2022-09-25T09:37:56;13.73;;;11.02;;
56927;SDS011;60850;52.502;13.426;2022-09-25T09:40:36;12.75;;;10.18;;
56927;SDS011;60850;52.502;13.426;2022-09-25T09:43:21;12.82;;;10.63;;
56927;SDS011;60850;52.502;13.426;2022-09-25T09:46:04;12.68;;;10.40;;
56927;SDS011;60850;52.502;13.426;2022-09-25T09:48:39;12.73;;;10.52;;
56927;SDS011;60850;52.502;13.426;2022-09-25T09:51:14;15.50;;;11.55;;
56927;SDS011;60850;52.502;13.426;2022-09-25T09:53:45;12.98;;;10.63;;
56927;SDS011;60850;52.502;13.426;2022-09-25T09:58:46;14.95;;;10.63;;
56927;SDS011;60850;52.502;13.426;2022-09-25T10:01:18;12.77;;;10.18;;
56927;SDS011;60850;52.502;13.426;2022-09-25T10:03:48;14.18;;;10.32;;
56927;SDS011;60850;52.502;13.426;2022-09-25T10:06:30;11.80;;;10.38;;
56927;SDS011;60850;52.502;13.426;2022-09-25T10:09:01;15.25;;;10.50;;
56927;SDS011;60850;52.502;13.426;2022-09-25T10:11:28;11.82;;;9.65;;
56927;SDS011;60850;52.502;13.426;2022-09-25T10:13:58;12.18;;;9.70;;
56927;SDS011;60850;52.502;13.426;2022-09-25T10:16:30;11.85;;;9.30;;
56927;SDS011;60850;52.502;13.426;2022-09-25T10:18:58;13.45;;;9.32;;
56927;SDS011;60850;52.502;13.426;2022-09-25T10:21:29;12.30;;;9.43;;
56927;SDS011;60850;52.502;13.426;2022-09-25T10:23:58;12.75;;;9.75;;
56927;SDS011;60850;52.502;13.426;2022-09-25T10:26:27;11.05;;;8.90;;
56927;SDS011;60850;52.502;13.426;2022-09-25T10:28:56;13.20;;;9.02;;
56927;SDS011;60850;52.502;13.426;2022-09-25T10:31:26;14.35;;;9.95;;
56927;SDS011;60850;52.502;13.426;2022-09-25T10:34:00;11.95;;;9.55;;
56927;SDS011;60850;52.502;13.426;2022-09-25T10:36:30;14.77;;;10.32;;
56927;SDS011;60850;52.502;13.426;2022-09-25T10:38:59;15.85;;;10.18;;
56927;SDS011;60850;52.502;13.426;2022-09-25T10:41:28;12.52;;;10.07;;
56927;SDS011;60850;52.502;13.426;2022-09-25T10:43:58;13.38;;;9.10;;
56927;SDS011;60850;52.502;13.426;2022-09-25T10:46:27;12.80;;;9.40;;
56927;SDS011;60850;52.502;13.426;2022-09-25T10:49:16;14.63;;;10.00;;
56927;SDS011;60850;52.502;13.426;2022-09-25T10:52:04;11.20;;;8.30;;
56927;SDS011;60850;52.502;13.426;2022-09-25T10:54:32;11.13;;;8.82;;
56927;SDS011;60850;52.502;13.426;2022-09-25T10:57:01;17.23;;;9.10;;
56927;SDS011;60850;52.502;13.426;2022-09-25T10:59:45;9.32;;;7.95;;
56927;SDS011;60850;52.502;13.426;2022-09-25T11:02:18;11.13;;;8.10;;
56927;SDS011;60850;52.502;13.426;2022-09-25T11:05:14;12.30;;;8.93;;
56927;SDS011;60850;52.502;13.426;2022-09-25T11:07:45;11.57;;;8.50;;
56927;SDS011;60850;52.502;13.426;2022-09-25T11:10:17;10.10;;;7.88;;
56927;SDS011;60850;52.502;13.426;2022-09-25T11:12:46;11.05;;;8.40;;
56927;SDS011;60850;52.502;13.426;2022-09-25T11:15:16;14.05;;;9.25;;
56927;SDS011;60850;52.502;13.426;2022-09-25T11:17:45;12.02;;;8.15;;
56927;SDS011;60850;52.502;13.426;2022-09-25T11:20:21;11.23;;;7.78;;
56927;SDS011;60850;52.502;13.426;2022-09-25T11:22:56;10.73;;;8.25;;
56927;SDS011;60850;52.502;13.426;2022-09-25T11:25:40;10.25;;;7.70;;
56927;SDS011;60850;52.502;13.426;2022-09-25T11:28:12;9.82;;;8.07;;
56927;SDS011;60850;52.502;13.426;2022-09-25T11:30:48;11.27;;;7.93;;
56927;SDS011;60850;52.502;13.426;2022-09-25T11:33:22;10.65;;;8.38;;
56927;SDS011;60850;52.502;13.426;2022-09-25T11:36:02;9.73;;;7.85;;
56927;SDS011;60850;52.502;13.426;2022-09-25T11:38:36;13.35;;;9.10;;
56927;SDS011;60850;52.502;13.426;2022-09-25T11:41:29;9.98;;;7.65;;
56927;SDS011;60850;52.502;13.426;2022-09-25T11:44:11;11.75;;;8.13;;
56927;SDS011;60850;52.502;13.426;2022-09-25T11:46:46;10.15;;;8.00;;
56927;SDS011;60850;52.502;13.426;2022-09-25T11:49:21;10.38;;;8.52;;
56927;SDS011;60850;52.502;13.426;2022-09-25T11:54:52;10.55;;;8.15;;
56927;SDS011;60850;52.502;13.426;2022-09-25T11:57:35;17.90;;;10.68;;
56927;SDS011;60850;52.502;13.426;2022-09-25T12:00:13;9.90;;;8.18;;
56927;SDS011;60850;52.502;13.426;2022-09-25T12:05:29;10.07;;;8.68;;
56927;SDS011;60850;52.502;13.426;2022-09-25T12:08:14;9.75;;;8.23;;
56927;SDS011;60850;52.502;13.426;2022-09-25T12:10:52;11.93;;;8.00;;
56927;SDS011;60850;52.502;13.426;2022-09-25T12:13:28;9.85;;;7.72;;
56927;SDS011;60850;52.502;13.426;2022-09-25T12:16:08;9.82;;;7.47;;
56927;SDS011;60850;52.502;13.426;2022-09-25T12:18:59;12.27;;;8.05;;
56927;SDS011;60850;52.502;13.426;2022-09-25T12:21:38;10.48;;;7.80;;
56927;SDS011;60850;52.502;13.426;2022-09-25T12:24:17;13.25;;;8.40;;
56927;SDS011;60850;52.502;13.426;2022-09-25T12:26:54;10.50;;;7.45;;
56927;SDS011;60850;52.502;13.426;2022-09-25T12:29:31;10.68;;;8.13;;
56927;SDS011;60850;52.502;13.426;2022-09-25T12:32:15;8.63;;;7.35;;
56927;SDS011;60850;52.502;13.426;2022-09-25T12:34:54;11.50;;;7.70;;
56927;SDS011;60850;52.502;13.426;2022-09-25T12:37:33;10.05;;;7.38;;
56927;SDS011;60850;52.502;13.426;2022-09-25T12:40:12;8.07;;;6.90;;
56927;SDS011;60850;52.502;13.426;2022-09-25T12:42:47;8.20;;;6.93;;
56927;SDS011;60850;52.502;13.426;2022-09-25T12:45:20;8.13;;;6.40;;
56927;SDS011;60850;52.502;13.426;2022-09-25T12:47:58;10.60;;;7.38;;
56927;SDS011;60850;52.502;13.426;2022-09-25T12:50:32;8.80;;;5.95;;
56927;SDS011;60850;52.502;13.426;2022-09-25T12:53:08;8.50;;;6.25;;
56927;SDS011;60850;52.502;13.426;2022-09-25T12:55:53;9.80;;;6.93;;
56927;SDS011;60850;52.502;13.426;2022-09-25T12:58:28;7.65;;;5.60;;
56927;SDS011;60850;52.502;13.426;2022-09-25T13:01:09;6.75;;;5.30;;
56927;SDS011;60850;52.502;13.426;2022-09-25T13:03:44;8.20;;;5.22;;
56927;SDS011;60850;52.502;13.426;2022-09-25T13:06:18;9.80;;;5.90;;
56927;SDS011;60850;52.502;13.426;2022-09-25T13:08:54;6.43;;;5.63;;
56927;SDS011;60850;52.502;13.426;2022-09-25T13:11:31;7.05;;;5.60;;
56927;SDS011;60850;52.502;13.426;2022-09-25T13:14:14;8.02;;;5.43;;
56927;SDS011;60850;52.502;13.426;2022-09-25T13:16:46;10.20;;;6.32;;
56927;SDS011;60850;52.502;13.426;2022-09-25T13:19:22;8.48;;;5.55;;
56927;SDS011;60850;52.502;13.426;2022-09-25T13:21:50;8.82;;;5.95;;
56927;SDS011;60850;52.502;13.426;2022-09-25T13:24:25;7.50;;;5.38;;
56927;SDS011;60850;52.502;13.426;2022-09-25T13:26:54;6.25;;;5.35;;
56927;SDS011;60850;52.502;13.426;2022-09-25T13:29:28;6.95;;;5.50;;
56927;SDS011;60850;52.502;13.426;2022-09-25T13:32:03;7.63;;;5.50;;
56927;SDS011;60850;52.502;13.426;2022-09-25T13:34:35;7.75;;;5.75;;
56927;SDS011;60850;52.502;13.426;2022-09-25T13:37:04;8.90;;;6.32;;
56927;SDS011;60850;52.502;13.426;2022-09-25T13:39:35;7.80;;;6.70;;
56927;SDS011;60850;52.502;13.426;2022-09-25T13:42:25;9.93;;;6.57;;
56927;SDS011;60850;52.502;13.426;2022-09-25T13:44:56;8.32;;;6.20;;
56927;SDS011;60850;52.502;13.426;2022-09-25T13:50:29;6.97;;;5.78;;
56927;SDS011;60850;52.502;13.426;2022-09-25T13:53:11;7.00;;;6.10;;
56927;SDS011;60850;52.502;13.426;2022-09-25T13:59:03;6.00;;;5.40;;
56927;SDS011;60850;52.502;13.426;2022-09-25T14:01:50;6.72;;;6.00;;
56927;SDS011;60850;52.502;13.426;2022-09-25T14:07:10;10.00;;;7.05;;
56927;SDS011;60850;52.502;13.426;2022-09-25T14:09:44;11.75;;;7.22;;
56927;SDS011;60850;52.502;13.426;2022-09-25T14:12:16;8.43;;;6.50;;
56927;SDS011;60850;52.502;13.426;2022-09-25T14:14:52;7.15;;;5.93;;
56927;SDS011;60850;52.502;13.426;2022-09-25T14:17:23;8.07;;;6.07;;
56927;SDS011;60850;52.502;13.426;2022-09-25T14:19:54;12.30;;;7.13;;
56927;SDS011;60850;52.502;13.426;2022-09-25T14:22:27;9.77;;;7.40;;
56927;SDS011;60850;52.502;13.426;2022-09-25T14:24:58;8.90;;;6.75;;
56927;SDS011;60850;52.502;13.426;2022-09-25T14:27:26;8.32;;;7.07;;
56927;SDS011;60850;52.502;13.426;2022-09-25T14:30:06;11.32;;;6.65;;
56927;SDS011;60850;52.502;13.426;2022-09-25T14:32:44;20.52;;;7.38;;
56927;SDS011;60850;52.502;13.426;2022-09-25T14:35:34;11.73;;;7.07;;
56927;SDS011;60850;52.502;13.426;2022-09-25T14:38:11;7.53;;;6.75;;
56927;SDS011;60850;52.502;13.426;2022-09-25T14:41:07;7.63;;;6.65;;
56927;SDS011;60850;52.502;13.426;2022-09-25T14:46:52;13.75;;;7.30;;
56927;SDS011;60850;52.502;13.426;2022-09-25T14:49:22;14.77;;;7.88;;
56927;SDS011;60850;52.502;13.426;2022-09-25T14:51:52;8.52;;;7.15;;
56927;SDS011;60850;52.502;13.426;2022-09-25T14:54:22;10.90;;;7.35;;
56927;SDS011;60850;52.502;13.426;2022-09-25T14:56:56;12.43;;;7.65;;
56927;SDS011;60850;52.502;13.426;2022-09-25T14:59:27;8.73;;;7.70;;
56927;SDS011;60850;52.502;13.426;2022-09-25T15:01:59;10.13;;;7.85;;
56927;SDS011;60850;52.502;13.426;2022-09-25T15:04:28;15.20;;;10.05;;
56927;SDS011;60850;52.502;13.426;2022-09-25T15:06:58;9.88;;;8.25;;
56927;SDS011;60850;52.502;13.426;2022-09-25T15:09:28;10.70;;;8.00;;
56927;SDS011;60850;52.502;13.426;2022-09-25T15:12:08;9.98;;;7.63;;
56927;SDS011;60850;52.502;13.426;2022-09-25T15:14:59;8.65;;;7.65;;
56927;SDS011;60850;52.502;13.426;2022-09-25T15:17:29;12.38;;;8.07;;
56927;SDS011;60850;52.502;13.426;2022-09-25T15:19:59;9.00;;;7.82;;